createdAt,value
2022-09-10T00:00:21.631Z,5.85
2022-09-10T00:02:49.377Z,6.18
2022-09-10T00:05:18.043Z,5.85
2022-09-10T00:07:46.399Z,5.50
2022-09-10T00:10:14.338Z,6.10
2022-09-10T00:12:42.756Z,5.90
2022-09-10T00:15:12.930Z,6.10
2022-09-10T00:17:40.719Z,5.75
2022-09-10T00:20:09.103Z,6.35
2022-09-10T00:22:36.699Z,6.05
2022-09-10T00:25:08.216Z,6.40
2022-09-10T00:27:36.464Z,6.10
2022-09-10T00:30:04.674Z,6.10
2022-09-10T00:32:34.764Z,6.25
2022-09-10T00:35:02.526Z,6.18
2022-09-10T00:37:30.887Z,6.07
2022-09-10T00:39:59.194Z,6.05
2022-09-10T00:42:26.739Z,6.35
2022-09-10T00:45:12.068Z,6.32
2022-09-10T00:47:40.971Z,5.95
2022-09-10T00:50:16.468Z,6.40
2022-09-10T00:52:44.324Z,6.30
2022-09-10T00:55:12.884Z,7.15
2022-09-10T00:57:41.372Z,6.80
2022-09-10T01:00:10.690Z,6.68
2022-09-10T01:02:38.237Z,6.90
2022-09-10T01:05:08.964Z,7.18
2022-09-10T01:07:37.356Z,7.28
2022-09-10T01:10:07.577Z,7.03
2022-09-10T01:12:44.552Z,6.82
2022-09-10T01:15:16.883Z,6.80
2022-09-10T01:17:55.124Z,7.18
2022-09-10T01:20:34.323Z,7.05
2022-09-10T01:23:15.721Z,6.50
2022-09-10T01:25:49.881Z,6.25
2022-09-10T01:28:23.662Z,6.43
2022-09-10T01:30:54.681Z,7.15
2022-09-10T01:33:27.501Z,6.47
2022-09-10T01:35:58.173Z,6.55
2022-09-10T01:38:27.990Z,6.30
2022-09-10T01:40:56.884Z,6.35
2022-09-10T01:43:27.637Z,5.80
2022-09-10T01:46:09.445Z,6.50
2022-09-10T01:48:55.949Z,6.40
2022-09-10T01:51:26.725Z,6.60
2022-09-10T01:54:06.417Z,6.47
2022-09-10T01:56:39.118Z,6.43
2022-09-10T01:59:14.293Z,6.70
2022-09-10T02:01:45.942Z,6.95
2022-09-10T02:04:15.092Z,6.20
2022-09-10T02:06:44.927Z,6.32
2022-09-10T02:09:13.904Z,7.07
2022-09-10T02:11:44.749Z,6.32
2022-09-10T02:14:14.536Z,7.00
2022-09-10T02:17:01.432Z,6.60
2022-09-10T02:19:29.323Z,7.88
2022-09-10T02:21:57.865Z,7.07
2022-09-10T02:24:25.594Z,7.10
2022-09-10T02:26:54.060Z,7.15
2022-09-10T02:29:22.980Z,6.75
2022-09-10T02:31:51.232Z,7.00
2022-09-10T02:34:20.190Z,6.50
2022-09-10T02:36:49.377Z,6.60
2022-09-10T02:39:16.859Z,6.80
2022-09-10T02:41:48.186Z,6.97
2022-09-10T02:44:16.243Z,6.68
2022-09-10T02:46:45.185Z,7.00
2022-09-10T02:49:12.754Z,6.70
2022-09-10T02:51:41.720Z,7.00
2022-09-10T02:54:09.279Z,6.22
2022-09-10T02:56:36.857Z,6.80
2022-09-10T02:59:04.736Z,7.32
2022-09-10T03:01:35.141Z,6.60
2022-09-10T03:04:06.979Z,6.75
2022-09-10T03:06:35.178Z,6.53
2022-09-10T03:09:02.768Z,5.78
2022-09-10T03:11:31.197Z,6.05
2022-09-10T03:13:59.695Z,6.60
2022-09-10T03:16:27.967Z,6.32
2022-09-10T03:18:56.240Z,6.90
2022-09-10T03:21:26.056Z,5.93
2022-09-10T03:23:54.172Z,6.35
2022-09-10T03:26:26.199Z,6.25
2022-09-10T03:28:54.887Z,6.15
2022-09-10T03:31:26.076Z,5.93
2022-09-10T03:33:53.749Z,7.20
2022-09-10T03:36:22.646Z,6.55
2022-09-10T03:38:52.025Z,6.30
2022-09-10T03:41:19.591Z,6.00
2022-09-10T03:43:49.413Z,6.75
2022-09-10T03:46:17.333Z,5.82
2022-09-10T03:48:48.013Z,6.93
2022-09-10T03:51:20.592Z,6.57
2022-09-10T03:53:48.252Z,5.78
2022-09-10T03:56:20.849Z,5.53
2022-09-10T03:58:49.247Z,5.65
2022-09-10T04:01:16.999Z,5.90
2022-09-10T04:03:47.424Z,6.03
2022-09-10T04:06:16.360Z,5.90
2022-09-10T04:08:44.283Z,6.78
2022-09-10T04:11:14.735Z,5.88
2022-09-10T04:13:45.298Z,6.20
2022-09-10T04:16:13.394Z,6.50
2022-09-10T04:18:41.415Z,6.30
2022-09-10T04:21:09.529Z,7.07
2022-09-10T04:23:41.309Z,6.53
2022-09-10T04:26:14.605Z,6.75
2022-09-10T04:28:45.139Z,6.28
2022-09-10T04:31:13.064Z,6.38
2022-09-10T04:33:41.024Z,6.78
2022-09-10T04:36:08.880Z,6.15
2022-09-10T04:38:41.611Z,6.75
2022-09-10T04:41:09.979Z,7.07
2022-09-10T04:43:38.056Z,7.82
2022-09-10T04:46:08.319Z,7.55
2022-09-10T04:48:38.707Z,6.72
2022-09-10T04:51:16.868Z,6.65
2022-09-10T04:53:47.742Z,7.28
2022-09-10T04:56:15.557Z,7.13
2022-09-10T04:58:44.066Z,7.63
2022-09-10T05:01:13.494Z,7.70
2022-09-10T05:03:42.847Z,7.68
2022-09-10T05:06:10.477Z,7.50
2022-09-10T05:08:38.250Z,6.88
2022-09-10T05:11:06.255Z,6.50
2022-09-10T05:13:34.421Z,7.05
2022-09-10T05:16:03.124Z,7.43
2022-09-10T05:18:34.736Z,8.40
2022-09-10T05:21:02.450Z,8.45
2022-09-10T05:23:29.979Z,8.63
2022-09-10T05:26:00.504Z,8.95
2022-09-10T05:28:28.944Z,8.50
2022-09-10T05:30:56.530Z,7.95
2022-09-10T05:33:27.083Z,7.07
2022-09-10T05:35:56.690Z,7.50
2022-09-10T05:38:24.949Z,7.80
2022-09-10T05:40:53.555Z,8.25
2022-09-10T05:43:22.034Z,8.00
2022-09-10T05:45:51.917Z,7.22
2022-09-10T05:48:20.176Z,7.28
2022-09-10T05:50:48.662Z,7.40
2022-09-10T05:53:17.941Z,7.88
2022-09-10T05:55:46.883Z,8.15
2022-09-10T05:58:16.128Z,7.88
2022-09-10T06:00:44.110Z,7.32
2022-09-10T06:03:12.646Z,7.47
2022-09-10T06:05:51.324Z,7.38
2022-09-10T06:08:25.098Z,7.28
2022-09-10T06:10:57.893Z,7.30
2022-09-10T06:13:27.803Z,7.38
2022-09-10T06:15:57.419Z,7.50
2022-09-10T06:18:27.630Z,7.43
2022-09-10T06:21:02.133Z,7.47
2022-09-10T06:23:31.967Z,6.78
2022-09-10T06:26:04.258Z,8.02
2022-09-10T06:28:33.278Z,7.30
2022-09-10T06:31:01.119Z,7.68
2022-09-10T06:33:29.753Z,7.72
2022-09-10T06:35:59.285Z,7.07
2022-09-10T06:38:29.217Z,7.15
2022-09-10T06:41:00.393Z,6.80
2022-09-10T06:43:33.289Z,6.90
2022-09-10T06:46:32.069Z,7.07
2022-09-10T06:49:07.014Z,6.93
2022-09-10T06:51:36.904Z,6.60
2022-09-10T06:54:05.602Z,7.10
2022-09-10T06:56:34.822Z,6.75
2022-09-10T06:59:04.946Z,7.07
2022-09-10T07:01:40.043Z,5.95
2022-09-10T07:04:09.071Z,6.57
2022-09-10T07:06:37.371Z,6.63
2022-09-10T07:09:11.485Z,6.40
2022-09-10T07:12:07.041Z,6.20
2022-09-10T07:14:37.249Z,5.75
2022-09-10T07:17:07.978Z,6.15
2022-09-10T07:19:37.597Z,5.85
2022-09-10T07:22:11.712Z,5.35
2022-09-10T07:24:39.961Z,5.45
2022-09-10T07:27:11.973Z,5.57
2022-09-10T07:29:42.624Z,5.47
2022-09-10T07:32:16.632Z,4.93
2022-09-10T07:34:44.263Z,5.25
2022-09-10T07:37:15.484Z,4.93
2022-09-10T07:39:43.547Z,5.28
2022-09-10T07:42:14.304Z,4.60
2022-09-10T07:44:42.245Z,6.03
2022-09-10T07:47:09.777Z,6.03
2022-09-10T07:49:38.419Z,8.13
2022-09-10T07:52:07.164Z,8.00
2022-09-10T07:54:43.828Z,7.88
2022-09-10T07:57:12.880Z,8.00
2022-09-10T07:59:41.531Z,8.45
2022-09-10T08:02:10.190Z,7.60
2022-09-10T08:04:38.858Z,7.75
2022-09-10T08:07:11.047Z,9.02
2022-09-10T08:09:41.024Z,10.75
2022-09-10T08:12:13.553Z,10.30
2022-09-10T08:14:42.273Z,9.13
2022-09-10T08:17:10.855Z,9.18
2022-09-10T08:19:42.597Z,9.73
2022-09-10T08:22:13.679Z,8.77
2022-09-10T08:24:47.979Z,9.52
2022-09-10T08:27:18.004Z,8.75
2022-09-10T08:29:47.175Z,8.15
2022-09-10T08:32:14.807Z,8.25
2022-09-10T08:34:42.525Z,8.32
2022-09-10T08:37:12.540Z,9.20
2022-09-10T08:39:41.169Z,9.32
2022-09-10T08:42:15.140Z,10.20
2022-09-10T08:44:49.877Z,10.00
2022-09-10T08:47:22.917Z,9.88
2022-09-10T08:49:53.815Z,8.57
2022-09-10T08:52:29.750Z,8.68
2022-09-10T08:55:05.509Z,9.38
2022-09-10T08:57:34.445Z,9.73
2022-09-10T09:00:04.772Z,9.30
2022-09-10T09:02:49.241Z,10.13
2022-09-10T09:05:20.599Z,10.20
2022-09-10T09:07:51.508Z,10.48
2022-09-10T09:10:20.892Z,9.68
2022-09-10T09:12:57.196Z,9.65
2022-09-10T09:15:28.988Z,9.13
2022-09-10T09:18:02.342Z,9.43
2022-09-10T09:20:37.758Z,10.27
2022-09-10T09:23:07.671Z,9.48
2022-09-10T09:25:44.175Z,9.90
2022-09-10T09:28:15.683Z,10.23
2022-09-10T09:30:49.350Z,10.30
2022-09-10T09:33:21.368Z,37.63
2022-09-10T09:35:52.437Z,10.02
2022-09-10T09:38:23.655Z,9.63
2022-09-10T09:40:56.242Z,9.00
2022-09-10T09:43:29.659Z,10.68
2022-09-10T09:45:59.162Z,11.32
2022-09-10T09:48:33.353Z,10.85
2022-09-10T09:51:02.562Z,9.55
2022-09-10T09:53:30.858Z,10.43
2022-09-10T09:55:59.335Z,10.10
2022-09-10T09:58:31.329Z,8.77
2022-09-10T10:01:12.936Z,8.95
2022-09-10T10:03:48.447Z,10.80
2022-09-10T10:06:16.591Z,9.82
2022-09-10T10:08:45.089Z,8.82
2022-09-10T10:11:14.052Z,9.73
2022-09-10T10:13:42.718Z,10.20
2022-09-10T10:16:17.041Z,11.60
2022-09-10T10:18:45.217Z,9.90
2022-09-10T10:21:14.545Z,9.65
2022-09-10T10:23:43.762Z,10.63
2022-09-10T10:26:20.185Z,9.57
2022-09-10T10:28:48.155Z,9.63
2022-09-10T10:31:17.407Z,10.30
2022-09-10T10:33:49.236Z,12.43
2022-09-10T10:36:19.685Z,10.18
2022-09-10T10:38:49.152Z,9.73
2022-09-10T10:41:40.590Z,9.52
2022-09-10T10:44:16.058Z,11.75
2022-09-10T10:46:53.825Z,10.80
2022-09-10T10:49:25.967Z,10.52
2022-09-10T10:51:58.968Z,12.07
2022-09-10T10:54:32.994Z,13.43
2022-09-10T10:57:05.778Z,12.27
2022-09-10T10:59:52.938Z,11.93
2022-09-10T11:02:25.144Z,12.20
2022-09-10T11:04:54.420Z,11.55
2022-09-10T11:07:23.900Z,10.05
2022-09-10T11:09:54.899Z,10.65
2022-09-10T11:12:28.474Z,10.77
2022-09-10T11:14:57.313Z,11.38
2022-09-10T11:17:28.389Z,10.45
2022-09-10T11:20:24.700Z,11.40
2022-09-10T11:22:51.417Z,10.52
2022-09-10T11:25:20.878Z,11.65
2022-09-10T11:27:51.163Z,11.57
2022-09-10T11:30:19.169Z,11.88
2022-09-10T11:32:51.471Z,14.07
2022-09-10T11:35:22.524Z,12.55
2022-09-10T11:37:53.514Z,12.32
2022-09-10T11:40:24.338Z,11.98
2022-09-10T11:42:53.999Z,11.77
2022-09-10T11:45:24.996Z,11.85
2022-09-10T11:47:57.257Z,10.80
2022-09-10T11:50:32.377Z,11.00
2022-09-10T11:53:02.248Z,9.77
2022-09-10T11:55:33.839Z,8.85
2022-09-10T11:58:04.920Z,9.30
2022-09-10T12:00:35.092Z,9.68
2022-09-10T12:03:27.193Z,8.52
2022-09-10T12:06:03.647Z,10.02
2022-09-10T12:08:38.295Z,9.35
2022-09-10T12:11:14.036Z,9.90
2022-09-10T12:13:41.850Z,11.25
2022-09-10T12:16:16.427Z,10.52
2022-09-10T12:18:45.324Z,10.38
2022-09-10T12:21:20.104Z,10.75
2022-09-10T12:23:47.853Z,10.30
2022-09-10T12:26:19.649Z,9.95
2022-09-10T12:29:04.007Z,9.95
2022-09-10T12:31:46.409Z,9.23
2022-09-10T12:34:19.381Z,9.68
2022-09-10T12:37:17.017Z,9.45
2022-09-10T12:39:46.064Z,10.02
2022-09-10T12:42:45.077Z,10.52
2022-09-10T12:45:12.592Z,10.13
2022-09-10T12:47:52.546Z,11.10
2022-09-10T12:50:34.586Z,8.90
2022-09-10T12:53:14.088Z,9.52
2022-09-10T12:55:48.604Z,9.70
2022-09-10T12:58:24.218Z,9.70
2022-09-10T13:01:04.479Z,8.93
2022-09-10T13:03:32.162Z,8.63
2022-09-10T13:06:01.092Z,9.65
2022-09-10T13:08:30.940Z,9.05
2022-09-10T13:11:15.675Z,8.88
2022-09-10T13:13:45.227Z,7.45
2022-09-10T13:16:14.867Z,7.25
2022-09-10T13:18:43.154Z,7.75
2022-09-10T13:21:29.429Z,7.55
2022-09-10T13:23:57.832Z,7.38
2022-09-10T13:26:48.312Z,7.00
2022-09-10T13:29:30.249Z,6.80
2022-09-10T13:32:00.333Z,6.75
2022-09-10T13:34:46.664Z,6.00
2022-09-10T13:37:22.386Z,6.05
2022-09-10T13:40:19.439Z,5.70
2022-09-10T13:43:01.813Z,5.38
2022-09-10T13:45:31.262Z,5.72
2022-09-10T13:48:02.013Z,5.00
2022-09-10T13:50:33.591Z,5.13
2022-09-10T13:53:04.927Z,5.18
2022-09-10T13:55:32.636Z,5.45
2022-09-10T13:58:05.255Z,5.63
2022-09-10T14:00:34.261Z,5.00
2022-09-10T14:03:02.251Z,5.05
2022-09-10T14:05:32.511Z,4.95
2022-09-10T14:08:02.682Z,4.38
2022-09-10T14:10:30.313Z,4.38
2022-09-10T14:12:58.703Z,4.18
2022-09-10T14:15:30.618Z,4.20
2022-09-10T14:17:59.683Z,4.13
2022-09-10T14:20:29.058Z,4.00
2022-09-10T14:22:59.400Z,4.13
2022-09-10T14:25:32.168Z,3.83
2022-09-10T14:28:13.337Z,3.83
2022-09-10T14:30:42.670Z,3.85
2022-09-10T14:33:21.287Z,3.70
2022-09-10T14:35:51.443Z,3.67
2022-09-10T14:38:26.128Z,3.90
2022-09-10T14:40:58.619Z,4.35
2022-09-10T14:43:28.585Z,4.60
2022-09-10T14:45:57.784Z,4.70
2022-09-10T14:48:32.292Z,4.30
2022-09-10T14:51:17.457Z,4.80
2022-09-10T14:53:45.951Z,4.78
2022-09-10T14:56:21.480Z,4.55
2022-09-10T14:58:51.047Z,4.90
2022-09-10T15:01:20.741Z,4.80
2022-09-10T15:03:48.283Z,5.13
2022-09-10T15:06:16.139Z,6.22
2022-09-10T15:08:43.989Z,6.03
2022-09-10T15:11:13.909Z,6.30
2022-09-10T15:13:43.216Z,4.90
2022-09-10T15:16:10.980Z,5.85
2022-09-10T15:18:40.055Z,5.22
2022-09-10T15:21:08.260Z,6.05
2022-09-10T15:23:35.972Z,6.18
2022-09-10T15:26:04.735Z,5.78
2022-09-10T15:28:32.549Z,5.15
2022-09-10T15:31:01.375Z,5.57
2022-09-10T15:33:28.931Z,5.75
2022-09-10T15:35:57.956Z,5.82
2022-09-10T15:38:25.581Z,5.55
2022-09-10T15:40:54.148Z,5.70
2022-09-10T15:43:24.324Z,4.90
2022-09-10T15:45:51.907Z,5.32
2022-09-10T15:48:19.415Z,5.70
2022-09-10T15:50:48.791Z,5.75
2022-09-10T15:53:17.690Z,6.15
2022-09-10T15:55:45.224Z,6.75
2022-09-10T15:58:13.054Z,6.20
2022-09-10T16:00:40.579Z,5.78
2022-09-10T16:03:08.172Z,5.63
2022-09-10T16:05:36.116Z,5.72
2022-09-10T16:08:03.912Z,5.90
2022-09-10T16:10:33.198Z,4.85
2022-09-10T16:13:01.227Z,5.32
2022-09-10T16:15:28.966Z,5.03
2022-09-10T16:17:56.479Z,5.30
2022-09-10T16:20:24.551Z,5.13
2022-09-10T16:22:54.505Z,4.70
2022-09-10T16:25:22.030Z,5.30
2022-09-10T16:27:51.224Z,5.03
2022-09-10T16:30:18.975Z,5.43
2022-09-10T16:32:46.467Z,5.53
2022-09-10T16:35:14.422Z,5.60
2022-09-10T16:37:42.016Z,5.97
2022-09-10T16:40:11.050Z,6.68
2022-09-10T16:42:39.074Z,6.38
2022-09-10T16:45:09.299Z,7.40
2022-09-10T16:47:37.119Z,6.53
2022-09-10T16:50:05.498Z,6.50
2022-09-10T16:52:34.047Z,7.20
2022-09-10T16:55:04.358Z,6.75
2022-09-10T16:57:31.922Z,7.38
2022-09-10T16:59:59.792Z,7.32
2022-09-10T17:02:31.925Z,8.05
2022-09-10T17:04:59.535Z,8.55
2022-09-10T17:07:27.306Z,120.05
2022-09-10T17:10:00.094Z,9.55
2022-09-10T17:12:29.376Z,9.10
2022-09-10T17:14:57.000Z,8.50
2022-09-10T17:17:25.407Z,8.43
2022-09-10T17:19:54.583Z,8.43
2022-09-10T17:22:22.648Z,7.82
2022-09-10T17:24:50.608Z,8.32
2022-09-10T17:27:21.430Z,8.10
2022-09-10T17:29:51.596Z,8.13
2022-09-10T17:32:19.306Z,8.02
2022-09-10T17:34:47.332Z,8.07
2022-09-10T17:37:16.256Z,8.15
2022-09-10T17:39:44.634Z,7.00
2022-09-10T17:42:13.000Z,8.40
2022-09-10T17:44:40.760Z,7.43
2022-09-10T17:47:09.532Z,7.88
2022-09-10T17:49:38.356Z,7.68
2022-09-10T17:52:06.125Z,8.02
2022-09-10T17:54:35.055Z,7.45
2022-09-10T17:57:02.722Z,7.80
2022-09-10T17:59:31.142Z,8.18
2022-09-10T18:01:59.457Z,7.97
2022-09-10T18:04:27.500Z,8.38
2022-09-10T18:06:55.720Z,18.02
2022-09-10T18:09:25.369Z,11.32
2022-09-10T18:11:56.471Z,9.15
2022-09-10T18:14:25.721Z,10.48
2022-09-10T18:16:55.413Z,11.13
2022-09-10T18:19:22.940Z,10.95
2022-09-10T18:21:51.205Z,12.70
2022-09-10T18:24:20.837Z,12.95
2022-09-10T18:26:48.983Z,15.43
2022-09-10T18:29:18.941Z,17.02
2022-09-10T18:31:47.690Z,15.63
2022-09-10T18:34:22.127Z,15.25
2022-09-10T18:36:53.333Z,17.63
2022-09-10T18:39:21.978Z,18.58
2022-09-10T18:41:49.507Z,19.05
2022-09-10T18:44:20.615Z,18.65
2022-09-10T18:46:48.974Z,22.23
2022-09-10T18:49:20.986Z,22.08
2022-09-10T18:51:49.466Z,22.17
2022-09-10T18:54:17.874Z,24.23
2022-09-10T18:56:46.860Z,24.67
2022-09-10T18:59:15.492Z,24.38
2022-09-10T19:01:45.547Z,25.30
2022-09-10T19:04:14.785Z,24.95
2022-09-10T19:06:43.151Z,26.10
2022-09-10T19:09:11.903Z,29.15
2022-09-10T19:11:40.292Z,28.58
2022-09-10T19:14:08.618Z,26.85
2022-09-10T19:16:36.760Z,28.25
2022-09-10T19:19:06.465Z,29.15
2022-09-10T19:21:35.234Z,27.95
2022-09-10T19:24:03.631Z,28.40
2022-09-10T19:26:31.908Z,29.23
2022-09-10T19:29:00.120Z,29.40
2022-09-10T19:31:28.346Z,29.17
2022-09-10T19:33:57.106Z,28.25
2022-09-10T19:36:27.759Z,28.42
2022-09-10T19:38:55.549Z,28.25
2022-09-10T19:41:23.429Z,30.55
2022-09-10T19:43:51.962Z,31.85
2022-09-10T19:46:20.496Z,33.55
2022-09-10T19:48:48.711Z,31.13
2022-09-10T19:51:16.762Z,31.65
2022-09-10T19:53:45.599Z,30.45
2022-09-10T19:56:19.724Z,29.67
2022-09-10T19:58:49.570Z,31.08
2022-09-10T20:01:17.881Z,31.50
2022-09-10T20:03:45.977Z,30.20
2022-09-10T20:06:14.924Z,31.88
2022-09-10T20:08:42.715Z,32.38
2022-09-10T20:11:15.410Z,32.13
2022-09-10T20:13:43.067Z,31.85
2022-09-10T20:16:10.760Z,29.20
2022-09-10T20:18:38.361Z,30.60
2022-09-10T20:21:11.342Z,32.13
2022-09-10T20:23:39.563Z,31.95
2022-09-10T20:26:13.550Z,29.77
2022-09-10T20:28:41.251Z,32.08
2022-09-10T20:31:09.750Z,32.45
2022-09-10T20:33:37.603Z,31.85
2022-09-10T20:36:06.009Z,33.10
2022-09-10T20:38:34.303Z,34.28
2022-09-10T20:41:01.923Z,33.78
2022-09-10T20:43:30.816Z,33.80
2022-09-10T20:45:58.392Z,32.70
2022-09-10T20:48:25.992Z,34.25
2022-09-10T20:50:54.256Z,33.22
2022-09-10T20:53:22.395Z,33.80
2022-09-10T20:55:50.164Z,34.75
2022-09-10T20:58:17.976Z,33.28
2022-09-10T21:00:46.887Z,35.65
2022-09-10T21:03:14.473Z,35.65
2022-09-10T21:05:49.131Z,34.42
2022-09-10T21:08:16.915Z,35.60
2022-09-10T21:10:44.744Z,36.55
2022-09-10T21:13:12.297Z,35.55
2022-09-10T21:15:39.849Z,35.53
2022-09-10T21:18:09.178Z,34.65
2022-09-10T21:20:36.700Z,36.10
2022-09-10T21:23:04.421Z,37.30
2022-09-10T21:25:33.079Z,35.55
2022-09-10T21:28:01.042Z,36.22
2022-09-10T21:30:29.035Z,37.75
2022-09-10T21:32:56.585Z,37.53
2022-09-10T21:35:25.688Z,36.45
2022-09-10T21:37:53.372Z,36.95
2022-09-10T21:40:21.200Z,36.72
2022-09-10T21:42:49.061Z,36.20
2022-09-10T21:45:18.681Z,35.33
2022-09-10T21:47:46.218Z,35.85
2022-09-10T21:50:13.777Z,37.70
2022-09-10T21:52:43.134Z,36.55
2022-09-10T21:55:10.930Z,37.15
2022-09-10T21:57:39.462Z,36.58
2022-09-10T22:00:08.261Z,35.53
2022-09-10T22:02:41.043Z,37.22
2022-09-10T22:05:09.177Z,35.53
2022-09-10T22:07:36.861Z,36.10
2022-09-10T22:10:07.474Z,36.90
2022-09-10T22:12:35.022Z,36.25
2022-09-10T22:15:02.598Z,35.90
2022-09-10T22:17:30.170Z,38.63
2022-09-10T22:19:58.078Z,37.50
2022-09-10T22:22:25.701Z,38.13
2022-09-10T22:24:53.597Z,37.35
2022-09-10T22:27:22.657Z,38.85
2022-09-10T22:29:51.408Z,38.13
2022-09-10T22:32:19.344Z,40.80
2022-09-10T22:34:48.476Z,39.88
2022-09-10T22:37:15.998Z,41.33
2022-09-10T22:39:43.719Z,41.40
2022-09-10T22:42:11.296Z,41.60
2022-09-10T22:44:40.191Z,42.28
2022-09-10T22:47:08.033Z,41.33
2022-09-10T22:49:37.124Z,40.97
2022-09-10T22:52:05.127Z,43.42
2022-09-10T22:54:32.656Z,42.25
2022-09-10T22:57:00.397Z,42.30
2022-09-10T22:59:28.082Z,42.75
2022-09-10T23:01:56.941Z,42.88
2022-09-10T23:04:24.507Z,43.65
2022-09-10T23:06:52.123Z,42.25
2022-09-10T23:09:19.703Z,44.30
2022-09-10T23:11:47.600Z,45.67
2022-09-10T23:14:17.857Z,46.03
2022-09-10T23:16:48.161Z,45.40
2022-09-10T23:19:17.800Z,43.65
2022-09-10T23:21:46.432Z,45.60
2022-09-10T23:24:15.676Z,44.58
2022-09-10T23:26:44.135Z,42.63
2022-09-10T23:29:12.340Z,45.15
2022-09-10T23:31:40.824Z,41.83
2022-09-10T23:34:09.843Z,44.08
2022-09-10T23:36:39.487Z,41.78
2022-09-10T23:39:07.884Z,42.08
2022-09-10T23:41:36.817Z,42.35
2022-09-10T23:44:04.432Z,41.85
2022-09-10T23:46:32.277Z,43.42
2022-09-10T23:49:00.253Z,44.40
2022-09-10T23:51:27.836Z,44.45
2022-09-10T23:53:56.869Z,45.05
2022-09-10T23:56:25.521Z,42.95
2022-09-10T23:58:53.397Z,43.33
